Serenade Of The Seas — C6FV8 — position and weather

sailwx.info

Track history (hours):
 
Tides and Currents Weather Stations Pressure Air Temp Water Temp Dewpoint Dewpoint Depression Visibility Wind Speed Wind Dir Waves Ship Positions

Serenade Of The Seas

Operator: Royal Caribbean Cruises Ltd

Last reported at 2017-Apr-27 18:30 UTC. Time now 2017-Apr-27 18:52 UTC.
Position N 51°49' W 008°16'.

Length 294 m; draft 8.6 m.

Type: Ship. MMSI: 311492000.

Date/timePositionNaut miles runAvg speedWind from/ knotsBaromVisibWave heightAir tempDewpointWater temp
2017-Apr-27 18:30N 51°49' W 008°16'2 4.0
2017-Apr-27 18:00N 51°51' W 008°18'0 0.0
2017-Apr-27 17:29N 51°51' W 008°18'0 0.0
2017-Apr-27 16:59N 51°51' W 008°18'0 0.0
2017-Apr-27 16:26N 51°51' W 008°18'0 0.0
2017-Apr-27 15:59N 51°51' W 008°18'0 0.0
2017-Apr-27 15:29N 51°51' W 008°18'0 0.0
2017-Apr-27 14:59N 51°51' W 008°18'0 0.0
2017-Apr-27 13:59N 51°51' W 008°18'0 0.0
2017-Apr-27 13:29N 51°51' W 008°18'0 0.0
2017-Apr-27 12:59N 51°51' W 008°18'0 0.0
2017-Apr-27 12:29N 51°51' W 008°18'0 0.0
2017-Apr-27 11:56N 51°51' W 008°18'0 0.0
2017-Apr-27 11:29N 51°51' W 008°18'0 0.0
2017-Apr-27 10:59N 51°51' W 008°18'0 0.0
2017-Apr-27 10:29N 51°51' W 008°18'0 0.0
2017-Apr-27 09:59N 51°51' W 008°18'0 0.0
2017-Apr-27 09:29N 51°51' W 008°18'0 0.0
2017-Apr-27 08:59N 51°51' W 008°18'0 0.1
2017-Apr-27 08:30N 51°51' W 008°18'2 3.6
2017-Apr-27 08:00N 51°49' W 008°16'510.4
2017-Apr-27 07:30N 51°44' W 008°15'713.3
2017-Apr-27 07:00N 51°38' W 008°16'917.4
2017-Apr-27 06:30N 51°29' W 008°21'1017.7
2017-Apr-27 05:56N 51°20' W 008°27'1417.7
2017-Apr-27 05:09N 51°08' W 008°36'  
2017-Apr-24 21:41N 38°38' W 024°06'1918.1
2017-Apr-24 20:39N 38°24' W 024°22'217.9
2017-Apr-24 20:30N 38°22' W 024°24'918.5
2017-Apr-24 20:00N 38°15' W 024°32'918.9
2017-Apr-24 19:30N 38°08' W 024°39'918.9
2017-Apr-24 19:00N 38°01' W 024°47'918.6
2017-Apr-24 18:30N 37°54' W 024°55'918.5
2017-Apr-24 18:00N 37°47' W 025°03'917.7
2017-Apr-24 17:30N 37°42' W 025°12'918.2
2017-Apr-24 17:01N 37°41' W 025°23'917.3
2017-Apr-24 16:31N 37°41' W 025°34'510.8
2017-Apr-24 16:00N 37°44' W 025°40'0 0.0
2017-Apr-24 15:28N 37°44' W 025°40'0 0.0
2017-Apr-24 14:58N 37°44' W 025°40'0 0.0
2017-Apr-24 14:28N 37°44' W 025°40'0 0.0
2017-Apr-24 13:28N 37°44' W 025°40'0 0.0
2017-Apr-24 12:58N 37°44' W 025°40'0 0.0
2017-Apr-24 12:28N 37°44' W 025°40'0 0.0
2017-Apr-24 11:58N 37°44' W 025°40'0 0.0
2017-Apr-24 11:28N 37°44' W 025°40'0 0.0
2017-Apr-24 10:58N 37°44' W 025°40'0 0.0
2017-Apr-24 10:28N 37°44' W 025°40'0 0.0
2017-Apr-24 09:58N 37°44' W 025°40'0 0.0
2017-Apr-24 09:28N 37°44' W 025°40'0 0.0
2017-Apr-24 08:58N 37°44' W 025°40'0 0.0
2017-Apr-24 08:28N 37°44' W 025°40'0 0.0
2017-Apr-24 07:58N 37°44' W 025°40'0 0.0
2017-Apr-24 07:28N 37°44' W 025°40'0 0.0
2017-Apr-24 06:58N 37°44' W 025°40'0 0.4
2017-Apr-24 06:30N 37°44' W 025°39'2 4.1
2017-Apr-24 06:00N 37°43' W 025°38'714.2
2017-Apr-24 05:30N 37°37' W 025°43'918.8
2017-Apr-24 05:00N 37°32' W 025°53'918.5
2017-Apr-24 04:30N 37°27' W 026°03'918.3
2017-Apr-24 04:00N 37°22' W 026°12'918.2
2017-Apr-24 03:30N 37°16' W 026°21'917.8
2017-Apr-24 03:00N 37°11' W 026°30'917.6
2017-Apr-24 02:31N 37°06' W 026°39'918.2
2017-Apr-24 02:00N 37°01' W 026°49'3418.4
2017-Apr-24 00:09N 36°41' W 027°23'318.9
2017-Apr-23 23:59N 36°39' W 027°26'1018.9
2017-Apr-23 23:28N 36°33' W 027°36'919.2
2017-Apr-23 23:00N 36°28' W 027°45'1019.2
2017-Apr-23 22:30N 36°23' W 027°55'  
2017-Apr-17 22:38N 26°11' W 079°39'323.5
2017-Apr-17 22:30N 26°11' W 079°42'1121.8
2017-Apr-17 22:00N 26°08' W 079°54'917.7
2017-Apr-17 21:30N 26°06' W 080°03'4 7.3
2017-Apr-17 21:00N 26°05' W 080°07'0 0.1
2017-Apr-17 20:29N 26°05' W 080°07'0 0.0
2017-Apr-17 19:59N 26°05' W 080°07'0 0.0
2017-Apr-17 19:29N 26°05' W 080°07'0 0.0
2017-Apr-17 18:59N 26°05' W 080°07'  
Track history (hours):
 
Tides and Currents Weather Stations Pressure Air Temp Water Temp Dewpoint Dewpoint Depression Visibility Wind Speed Wind Dir Waves Ship Positions

Serenade Of The Seas

Operator: Royal Caribbean Cruises Ltd

Last reported at 2017-Apr-27 18:30 UTC. Time now 2017-Apr-27 18:52 UTC.
Position N 51°49' W 008°16'.

Length 294 m; draft 8.6 m.

Type: Ship. MMSI: 311492000.

Date/timePositionNaut miles runAvg speedWind from/ knotsBaromVisibWave heightAir tempDewpointWater temp
2017-Apr-27 18:30N 51°49' W 008°16'2 4.0
2017-Apr-27 18:00N 51°51' W 008°18'0 0.0
2017-Apr-27 17:29N 51°51' W 008°18'0 0.0
2017-Apr-27 16:59N 51°51' W 008°18'0 0.0
2017-Apr-27 16:26N 51°51' W 008°18'0 0.0
2017-Apr-27 15:59N 51°51' W 008°18'0 0.0
2017-Apr-27 15:29N 51°51' W 008°18'0 0.0
2017-Apr-27 14:59N 51°51' W 008°18'0 0.0
2017-Apr-27 13:59N 51°51' W 008°18'0 0.0
2017-Apr-27 13:29N 51°51' W 008°18'0 0.0
2017-Apr-27 12:59N 51°51' W 008°18'0 0.0
2017-Apr-27 12:29N 51°51' W 008°18'0 0.0
2017-Apr-27 11:56N 51°51' W 008°18'0 0.0
2017-Apr-27 11:29N 51°51' W 008°18'0 0.0
2017-Apr-27 10:59N 51°51' W 008°18'0 0.0
2017-Apr-27 10:29N 51°51' W 008°18'0 0.0
2017-Apr-27 09:59N 51°51' W 008°18'0 0.0
2017-Apr-27 09:29N 51°51' W 008°18'0 0.0
2017-Apr-27 08:59N 51°51' W 008°18'0 0.1
2017-Apr-27 08:30N 51°51' W 008°18'2 3.6
2017-Apr-27 08:00N 51°49' W 008°16'510.4
2017-Apr-27 07:30N 51°44' W 008°15'713.3
2017-Apr-27 07:00N 51°38' W 008°16'917.4
2017-Apr-27 06:30N 51°29' W 008°21'1017.7
2017-Apr-27 05:56N 51°20' W 008°27'1417.7
2017-Apr-27 05:09N 51°08' W 008°36'  
2017-Apr-24 21:41N 38°38' W 024°06'1918.1
2017-Apr-24 20:39N 38°24' W 024°22'217.9
2017-Apr-24 20:30N 38°22' W 024°24'918.5
2017-Apr-24 20:00N 38°15' W 024°32'918.9
2017-Apr-24 19:30N 38°08' W 024°39'918.9
2017-Apr-24 19:00N 38°01' W 024°47'918.6
2017-Apr-24 18:30N 37°54' W 024°55'918.5
2017-Apr-24 18:00N 37°47' W 025°03'917.7
2017-Apr-24 17:30N 37°42' W 025°12'918.2
2017-Apr-24 17:01N 37°41' W 025°23'917.3
2017-Apr-24 16:31N 37°41' W 025°34'510.8
2017-Apr-24 16:00N 37°44' W 025°40'0 0.0
2017-Apr-24 15:28N 37°44' W 025°40'0 0.0
2017-Apr-24 14:58N 37°44' W 025°40'0 0.0
2017-Apr-24 14:28N 37°44' W 025°40'0 0.0
2017-Apr-24 13:28N 37°44' W 025°40'0 0.0
2017-Apr-24 12:58N 37°44' W 025°40'0 0.0
2017-Apr-24 12:28N 37°44' W 025°40'0 0.0
2017-Apr-24 11:58N 37°44' W 025°40'0 0.0
2017-Apr-24 11:28N 37°44' W 025°40'0 0.0
2017-Apr-24 10:58N 37°44' W 025°40'0 0.0
2017-Apr-24 10:28N 37°44' W 025°40'0 0.0
2017-Apr-24 09:58N 37°44' W 025°40'0 0.0
2017-Apr-24 09:28N 37°44' W 025°40'0 0.0
2017-Apr-24 08:58N 37°44' W 025°40'0 0.0
2017-Apr-24 08:28N 37°44' W 025°40'0 0.0
2017-Apr-24 07:58N 37°44' W 025°40'0 0.0
2017-Apr-24 07:28N 37°44' W 025°40'0 0.0
2017-Apr-24 06:58N 37°44' W 025°40'0 0.4
2017-Apr-24 06:30N 37°44' W 025°39'2 4.1
2017-Apr-24 06:00N 37°43' W 025°38'714.2
2017-Apr-24 05:30N 37°37' W 025°43'918.8
2017-Apr-24 05:00N 37°32' W 025°53'918.5
2017-Apr-24 04:30N 37°27' W 026°03'918.3
2017-Apr-24 04:00N 37°22' W 026°12'918.2
2017-Apr-24 03:30N 37°16' W 026°21'917.8
2017-Apr-24 03:00N 37°11' W 026°30'917.6
2017-Apr-24 02:31N 37°06' W 026°39'918.2
2017-Apr-24 02:00N 37°01' W 026°49'3418.4
2017-Apr-24 00:09N 36°41' W 027°23'318.9
2017-Apr-23 23:59N 36°39' W 027°26'1018.9
2017-Apr-23 23:28N 36°33' W 027°36'919.2
2017-Apr-23 23:00N 36°28' W 027°45'1019.2
2017-Apr-23 22:30N 36°23' W 027°55'  
2017-Apr-17 22:38N 26°11' W 079°39'323.5
2017-Apr-17 22:30N 26°11' W 079°42'1121.8
2017-Apr-17 22:00N 26°08' W 079°54'917.7
2017-Apr-17 21:30N 26°06' W 080°03'4 7.3
2017-Apr-17 21:00N 26°05' W 080°07'0 0.1
2017-Apr-17 20:29N 26°05' W 080°07'0 0.0
2017-Apr-17 19:59N 26°05' W 080°07'0 0.0
2017-Apr-17 19:29N 26°05' W 080°07'0 0.0
2017-Apr-17 18:59N 26°05' W 080°07'  

Dump ship's entire track history